LNK520 KMFR-KBFI
Flight info
| Callsign | LNK520 |
|---|---|
| Flight time | 1h 30m |
| Altitude | 24000 |
| Route | JKSN1 OED UBG OLM2 |
| Aircraft | BE20/L-SBGRY/S |
Departure
| Time | 2026-04-28 11:33 |
|---|---|
| Airport | Rogue Valley International-Medford Airport (KMFR) |
Arrival
| Time | 2026-04-28 13:04 |
|---|---|
| Airport | King County International Airport - Boeing Field (KBFI) |
| Time | Latitude | Longitude | Altitude | Speed | Heading |
|---|---|---|---|---|---|
| 2026-04-28 11:14 | 42.36874 | -122.87263 | 1339 ft | 0 kts | 249° |
| 2026-04-28 11:21 | 42.36874 | -122.87264 | 1339 ft | 0 kts | 249° |
| 2026-04-28 11:24 | 42.36872 | -122.87267 | 1339 ft | 0 kts | 211° |
| 2026-04-28 11:24 | 42.36869 | -122.87268 | 1339 ft | 2 kts | 174° |
| 2026-04-28 11:25 | 42.36855 | -122.87257 | 1339 ft | 0 kts | 144° |
| 2026-04-28 11:28 | 42.36853 | -122.87254 | 1339 ft | 1 kts | 144° |
| 2026-04-28 11:28 | 42.36841 | -122.87243 | 1339 ft | 3 kts | 144° |
| 2026-04-28 11:28 | 42.36804 | -122.87204 | 1339 ft | 13 kts | 139° |
| 2026-04-28 11:29 | 42.36737 | -122.87056 | 1339 ft | 21 kts | 98° |
| 2026-04-28 11:29 | 42.36627 | -122.86957 | 1339 ft | 22 kts | 183° |
| 2026-04-28 11:29 | 42.36479 | -122.86893 | 1339 ft | 21 kts | 158° |
| 2026-04-28 11:29 | 42.36353 | -122.86821 | 1339 ft | 13 kts | 108° |
| 2026-04-28 11:30 | 42.36363 | -122.86784 | 1339 ft | 0 kts | 38° |
| 2026-04-28 11:31 | 42.36364 | -122.86784 | 1339 ft | 0 kts | 38° |
| 2026-04-28 11:32 | 42.36369 | -122.86778 | 1339 ft | 4 kts | 37° |
| 2026-04-28 11:32 | 42.36433 | -122.86768 | 1339 ft | 13 kts | 338° |
| 2026-04-28 11:32 | 42.36595 | -122.86856 | 1339 ft | 43 kts | 337° |
| 2026-04-28 11:32 | 42.37030 | -122.87084 | 1339 ft | 90 kts | 338° |
| 2026-04-28 11:33 | 42.37692 | -122.87458 | 1461 ft | 112 kts | 334° |
| 2026-04-28 11:33 | 42.38451 | -122.87852 | 1733 ft | 115 kts | 330° |
| 2026-04-28 11:33 | 42.39078 | -122.88473 | 2150 ft | 109 kts | 319° |
| 2026-04-28 11:33 | 42.39786 | -122.88876 | 2472 ft | 119 kts | 354° |
| 2026-04-28 11:34 | 42.40602 | -122.88892 | 2940 ft | 120 kts | 355° |
| 2026-04-28 11:34 | 42.41450 | -122.89012 | 3374 ft | 125 kts | 348° |
| 2026-04-28 11:34 | 42.42314 | -122.89250 | 3814 ft | 129 kts | 344° |
| 2026-04-28 11:34 | 42.43191 | -122.89599 | 4258 ft | 134 kts | 334° |
| 2026-04-28 11:35 | 42.44039 | -122.90170 | 4698 ft | 139 kts | 333° |
| 2026-04-28 11:35 | 42.44964 | -122.90647 | 5139 ft | 145 kts | 341° |
| 2026-04-28 11:35 | 42.45955 | -122.90995 | 5557 ft | 150 kts | 346° |
| 2026-04-28 11:35 | 42.46996 | -122.91254 | 5968 ft | 154 kts | 349° |
| 2026-04-28 11:36 | 42.48076 | -122.91437 | 6376 ft | 158 kts | 355° |
| 2026-04-28 11:36 | 42.49185 | -122.91477 | 6783 ft | 161 kts | 358° |
| 2026-04-28 11:36 | 42.50318 | -122.91488 | 7173 ft | 164 kts | 358° |
| 2026-04-28 11:36 | 42.51474 | -122.91497 | 7530 ft | 168 kts | 358° |
| 2026-04-28 11:37 | 42.52660 | -122.91511 | 7887 ft | 172 kts | 358° |
| 2026-04-28 11:37 | 42.53865 | -122.91528 | 8241 ft | 174 kts | 358° |
| 2026-04-28 11:37 | 42.55083 | -122.91549 | 8594 ft | 176 kts | 358° |
| 2026-04-28 11:37 | 42.56314 | -122.91572 | 8946 ft | 178 kts | 358° |
| 2026-04-28 11:38 | 42.57554 | -122.91597 | 9296 ft | 179 kts | 358° |
| 2026-04-28 11:38 | 42.58792 | -122.91623 | 9621 ft | 181 kts | 358° |
| 2026-04-28 11:38 | 42.60054 | -122.91649 | 9949 ft | 182 kts | 358° |
| 2026-04-28 11:38 | 42.61324 | -122.91675 | 10276 ft | 183 kts | 358° |
| 2026-04-28 11:39 | 42.62598 | -122.91701 | 10602 ft | 184 kts | 358° |
| 2026-04-28 11:39 | 42.63876 | -122.91728 | 10927 ft | 184 kts | 358° |
| 2026-04-28 11:39 | 42.65156 | -122.91754 | 11248 ft | 184 kts | 358° |
| 2026-04-28 11:39 | 42.66447 | -122.91782 | 11551 ft | 186 kts | 358° |
| 2026-04-28 11:40 | 42.67741 | -122.91810 | 11854 ft | 186 kts | 359° |
| 2026-04-28 11:40 | 42.69042 | -122.91837 | 12155 ft | 187 kts | 359° |
| 2026-04-28 11:40 | 42.70344 | -122.91865 | 12455 ft | 187 kts | 359° |
| 2026-04-28 11:40 | 42.71649 | -122.91894 | 12755 ft | 188 kts | 359° |
| 2026-04-28 11:41 | 42.72957 | -122.91922 | 13055 ft | 188 kts | 359° |
| 2026-04-28 11:41 | 42.74267 | -122.91950 | 13355 ft | 188 kts | 360° |
| 2026-04-28 11:41 | 42.75583 | -122.91979 | 13636 ft | 190 kts | 360° |
| 2026-04-28 11:41 | 42.76916 | -122.92008 | 13890 ft | 193 kts | 360° |
| 2026-04-28 11:42 | 42.78264 | -122.92036 | 14143 ft | 194 kts | 0° |
| 2026-04-28 11:42 | 42.79620 | -122.92064 | 14395 ft | 196 kts | 0° |
| 2026-04-28 11:42 | 42.80981 | -122.92093 | 14645 ft | 197 kts | 0° |
| 2026-04-28 11:42 | 42.82355 | -122.92122 | 14897 ft | 197 kts | 0° |
| 2026-04-28 11:43 | 42.83730 | -122.92152 | 15147 ft | 198 kts | 0° |
| 2026-04-28 11:43 | 42.85108 | -122.92181 | 15398 ft | 198 kts | 0° |
| 2026-04-28 11:43 | 42.86488 | -122.92211 | 15648 ft | 199 kts | 1° |
| 2026-04-28 11:43 | 42.87853 | -122.92242 | 15894 ft | 199 kts | 1° |
| 2026-04-28 11:44 | 42.89237 | -122.92282 | 16144 ft | 199 kts | 1° |
| 2026-04-28 11:44 | 42.90625 | -122.92327 | 16395 ft | 199 kts | 1° |
| 2026-04-28 11:44 | 42.92011 | -122.92371 | 16644 ft | 199 kts | 1° |
| 2026-04-28 11:44 | 42.93398 | -122.92412 | 16895 ft | 199 kts | 1° |
| 2026-04-28 11:45 | 42.94781 | -122.92449 | 17144 ft | 199 kts | 1° |
| 2026-04-28 11:45 | 42.96169 | -122.92483 | 17394 ft | 199 kts | 1° |
| 2026-04-28 11:45 | 42.97552 | -122.92516 | 17644 ft | 199 kts | 1° |
| 2026-04-28 11:45 | 42.98935 | -122.92548 | 17893 ft | 199 kts | 2° |
| 2026-04-28 11:46 | 43.00316 | -122.92580 | 18143 ft | 198 kts | 2° |
| 2026-04-28 11:46 | 43.01698 | -122.92611 | 18392 ft | 198 kts | 2° |
| 2026-04-28 11:46 | 43.03077 | -122.92642 | 18641 ft | 198 kts | 2° |
| 2026-04-28 11:46 | 43.04437 | -122.92673 | 18887 ft | 198 kts | 2° |
| 2026-04-28 11:47 | 43.05813 | -122.92704 | 19136 ft | 198 kts | 2° |
| 2026-04-28 11:47 | 43.07189 | -122.92735 | 19385 ft | 198 kts | 2° |
| 2026-04-28 11:47 | 43.08564 | -122.92766 | 19635 ft | 197 kts | 3° |
| 2026-04-28 11:47 | 43.09935 | -122.92798 | 19884 ft | 197 kts | 3° |
| 2026-04-28 11:48 | 43.11305 | -122.92829 | 20132 ft | 197 kts | 3° |
| 2026-04-28 11:48 | 43.12670 | -122.92860 | 20385 ft | 196 kts | 3° |
| 2026-04-28 11:48 | 43.14034 | -122.92892 | 20641 ft | 196 kts | 3° |
| 2026-04-28 11:48 | 43.15397 | -122.92924 | 20892 ft | 196 kts | 3° |
| 2026-04-28 11:49 | 43.16757 | -122.92956 | 21141 ft | 196 kts | 3° |
| 2026-04-28 11:49 | 43.18119 | -122.92988 | 21390 ft | 196 kts | 4° |
| 2026-04-28 11:49 | 43.19480 | -122.93019 | 21639 ft | 196 kts | 4° |
| 2026-04-28 11:49 | 43.20841 | -122.93050 | 21888 ft | 196 kts | 4° |
| 2026-04-28 11:50 | 43.22201 | -122.93081 | 22137 ft | 196 kts | 4° |
| 2026-04-28 11:50 | 43.23564 | -122.93112 | 22387 ft | 195 kts | 4° |
| 2026-04-28 11:50 | 43.24926 | -122.93144 | 22636 ft | 195 kts | 4° |
| 2026-04-28 11:50 | 43.26268 | -122.93175 | 22882 ft | 195 kts | 4° |
| 2026-04-28 11:51 | 43.27625 | -122.93207 | 23130 ft | 195 kts | 5° |
| 2026-04-28 11:51 | 43.28986 | -122.93238 | 23381 ft | 195 kts | 5° |
| 2026-04-28 11:51 | 43.30341 | -122.93270 | 23630 ft | 195 kts | 4° |
| 2026-04-28 11:51 | 43.31711 | -122.93300 | 23797 ft | 199 kts | 5° |
| 2026-04-28 11:52 | 43.33124 | -122.93326 | 23871 ft | 207 kts | 5° |
| 2026-04-28 11:52 | 43.34598 | -122.93347 | 23872 ft | 217 kts | 5° |
| 2026-04-28 11:52 | 43.36134 | -122.93368 | 23864 ft | 224 kts | 5° |
| 2026-04-28 11:52 | 43.37717 | -122.93391 | 23858 ft | 230 kts | 5° |
| 2026-04-28 11:53 | 43.39337 | -122.93417 | 23857 ft | 235 kts | 5° |
| 2026-04-28 11:53 | 43.40985 | -122.93447 | 23855 ft | 239 kts | 4° |
| 2026-04-28 11:53 | 43.42656 | -122.93480 | 23854 ft | 242 kts | 4° |
| 2026-04-28 11:53 | 43.44352 | -122.93515 | 23853 ft | 244 kts | 4° |
| 2026-04-28 11:54 | 43.46053 | -122.93551 | 23852 ft | 246 kts | 4° |
| 2026-04-28 11:54 | 43.47769 | -122.93588 | 23852 ft | 247 kts | 4° |
| 2026-04-28 11:54 | 43.49491 | -122.93626 | 23852 ft | 248 kts | 4° |
| 2026-04-28 11:54 | 43.51221 | -122.93665 | 23857 ft | 249 kts | 4° |
| 2026-04-28 11:55 | 43.52938 | -122.93704 | 23856 ft | 250 kts | 4° |
| 2026-04-28 11:55 | 43.54682 | -122.93742 | 23854 ft | 250 kts | 4° |
| 2026-04-28 11:55 | 43.56431 | -122.93781 | 23854 ft | 251 kts | 4° |
| 2026-04-28 11:55 | 43.58174 | -122.93820 | 23854 ft | 251 kts | 4° |
| 2026-04-28 11:56 | 43.59925 | -122.93859 | 23854 ft | 252 kts | 4° |
| 2026-04-28 11:56 | 43.61681 | -122.93898 | 23854 ft | 252 kts | 4° |
| 2026-04-28 11:56 | 43.62836 | -122.93924 | 23854 ft | 252 kts | 4° |
| 2026-04-28 11:56 | 43.64595 | -122.93964 | 23855 ft | 252 kts | 4° |
| 2026-04-28 11:57 | 43.66345 | -122.94003 | 23856 ft | 252 kts | 4° |
| 2026-04-28 11:57 | 43.68671 | -122.94056 | 23856 ft | 252 kts | 4° |
| 2026-04-28 11:57 | 43.70430 | -122.94096 | 23856 ft | 252 kts | 4° |
| 2026-04-28 11:57 | 43.71591 | -122.94122 | 23856 ft | 252 kts | 4° |
| 2026-04-28 11:58 | 43.73368 | -122.94162 | 23857 ft | 252 kts | 4° |
| 2026-04-28 11:58 | 43.75117 | -122.94201 | 23858 ft | 252 kts | 4° |
| 2026-04-28 11:58 | 43.76850 | -122.94240 | 23858 ft | 252 kts | 4° |
| 2026-04-28 11:58 | 43.78604 | -122.94279 | 23858 ft | 252 kts | 4° |
| 2026-04-28 11:59 | 43.80358 | -122.94319 | 23858 ft | 252 kts | 4° |
| 2026-04-28 11:59 | 43.82110 | -122.94359 | 23858 ft | 252 kts | 4° |
| 2026-04-28 11:59 | 43.83865 | -122.94398 | 23858 ft | 252 kts | 4° |
| 2026-04-28 11:59 | 43.85616 | -122.94438 | 23859 ft | 252 kts | 4° |
| 2026-04-28 12:00 | 43.87373 | -122.94478 | 23859 ft | 252 kts | 4° |
| 2026-04-28 12:00 | 43.89129 | -122.94517 | 23859 ft | 252 kts | 4° |
| 2026-04-28 12:00 | 43.90881 | -122.94557 | 23859 ft | 252 kts | 4° |
| 2026-04-28 12:00 | 43.92633 | -122.94597 | 23859 ft | 252 kts | 4° |
| 2026-04-28 12:01 | 43.94385 | -122.94637 | 23859 ft | 252 kts | 4° |
| 2026-04-28 12:01 | 43.96141 | -122.94677 | 23859 ft | 252 kts | 5° |
| 2026-04-28 12:01 | 43.97891 | -122.94717 | 23859 ft | 252 kts | 5° |
| 2026-04-28 12:01 | 43.99648 | -122.94757 | 23860 ft | 252 kts | 5° |
| 2026-04-28 12:02 | 44.01401 | -122.94796 | 23860 ft | 252 kts | 4° |
| 2026-04-28 12:02 | 44.03157 | -122.94836 | 23860 ft | 252 kts | 4° |
| 2026-04-28 12:02 | 44.04890 | -122.94875 | 23861 ft | 252 kts | 4° |
| 2026-04-28 12:02 | 44.06648 | -122.94916 | 23861 ft | 252 kts | 4° |
| 2026-04-28 12:03 | 44.08402 | -122.94956 | 23862 ft | 252 kts | 4° |
| 2026-04-28 12:03 | 44.10154 | -122.94996 | 23862 ft | 252 kts | 4° |
| 2026-04-28 12:03 | 44.11912 | -122.95036 | 23863 ft | 252 kts | 4° |
| 2026-04-28 12:03 | 44.13672 | -122.95076 | 23863 ft | 252 kts | 4° |
| 2026-04-28 12:04 | 44.15429 | -122.95116 | 23860 ft | 253 kts | 4° |
| 2026-04-28 12:04 | 44.17189 | -122.95157 | 23858 ft | 253 kts | 4° |
| 2026-04-28 12:04 | 44.18948 | -122.95197 | 23858 ft | 253 kts | 4° |
| 2026-04-28 12:04 | 44.20706 | -122.95237 | 23859 ft | 252 kts | 4° |
| 2026-04-28 12:05 | 44.22460 | -122.95278 | 23863 ft | 252 kts | 4° |
| 2026-04-28 12:05 | 44.24216 | -122.95318 | 23864 ft | 252 kts | 4° |
| 2026-04-28 12:05 | 44.25974 | -122.95358 | 23864 ft | 252 kts | 4° |
| 2026-04-28 12:05 | 44.27728 | -122.95398 | 23861 ft | 253 kts | 4° |
| 2026-04-28 12:06 | 44.29489 | -122.95438 | 23859 ft | 253 kts | 4° |
| 2026-04-28 12:06 | 44.31249 | -122.95479 | 23857 ft | 253 kts | 4° |
| 2026-04-28 12:06 | 44.33002 | -122.95519 | 23856 ft | 253 kts | 4° |
| 2026-04-28 12:06 | 44.34767 | -122.95560 | 23855 ft | 253 kts | 4° |
| 2026-04-28 12:07 | 44.36527 | -122.95601 | 23853 ft | 253 kts | 4° |
| 2026-04-28 12:07 | 44.38263 | -122.95641 | 23852 ft | 253 kts | 4° |
| 2026-04-28 12:07 | 44.40026 | -122.95681 | 23851 ft | 253 kts | 4° |
| 2026-04-28 12:07 | 44.41784 | -122.95722 | 23849 ft | 253 kts | 4° |
| 2026-04-28 12:08 | 44.43550 | -122.95763 | 23848 ft | 253 kts | 4° |
| 2026-04-28 12:08 | 44.45314 | -122.95803 | 23846 ft | 253 kts | 4° |
| 2026-04-28 12:08 | 44.47078 | -122.95844 | 23845 ft | 253 kts | 4° |
| 2026-04-28 12:08 | 44.48843 | -122.95884 | 23844 ft | 253 kts | 4° |
| 2026-04-28 12:09 | 44.50610 | -122.95926 | 23843 ft | 253 kts | 4° |
| 2026-04-28 12:09 | 44.52347 | -122.95966 | 23844 ft | 253 kts | 4° |
| 2026-04-28 12:09 | 44.54106 | -122.96007 | 23844 ft | 253 kts | 4° |
| 2026-04-28 12:09 | 44.55875 | -122.96048 | 23843 ft | 253 kts | 4° |
| 2026-04-28 12:10 | 44.57634 | -122.96089 | 23842 ft | 253 kts | 4° |
| 2026-04-28 12:10 | 44.59401 | -122.96129 | 23842 ft | 253 kts | 4° |
| 2026-04-28 12:10 | 44.61164 | -122.96170 | 23841 ft | 253 kts | 4° |
| 2026-04-28 12:10 | 44.62923 | -122.96211 | 23841 ft | 253 kts | 4° |
| 2026-04-28 12:11 | 44.64686 | -122.96252 | 23840 ft | 253 kts | 4° |
| 2026-04-28 12:11 | 44.66454 | -122.96294 | 23839 ft | 254 kts | 4° |
| 2026-04-28 12:11 | 44.68220 | -122.96335 | 23843 ft | 253 kts | 4° |
| 2026-04-28 12:11 | 44.69986 | -122.96376 | 23842 ft | 253 kts | 4° |
| 2026-04-28 12:12 | 44.71752 | -122.96417 | 23839 ft | 254 kts | 4° |
| 2026-04-28 12:12 | 44.73521 | -122.96458 | 23837 ft | 254 kts | 4° |
| 2026-04-28 12:12 | 44.75286 | -122.96499 | 23836 ft | 254 kts | 4° |
| 2026-04-28 12:12 | 44.77053 | -122.96541 | 23835 ft | 254 kts | 4° |
| 2026-04-28 12:13 | 44.78797 | -122.96582 | 23834 ft | 254 kts | 4° |
| 2026-04-28 12:13 | 44.80565 | -122.96623 | 23832 ft | 254 kts | 3° |
| 2026-04-28 12:13 | 44.82335 | -122.96664 | 23832 ft | 254 kts | 3° |
| 2026-04-28 12:13 | 44.84098 | -122.96705 | 23831 ft | 254 kts | 3° |
| 2026-04-28 12:14 | 44.85867 | -122.96747 | 23830 ft | 254 kts | 3° |
| 2026-04-28 12:14 | 44.87636 | -122.96788 | 23830 ft | 254 kts | 3° |
| 2026-04-28 12:14 | 44.89403 | -122.96830 | 23829 ft | 254 kts | 3° |
| 2026-04-28 12:14 | 44.91179 | -122.96871 | 23829 ft | 254 kts | 3° |
| 2026-04-28 12:15 | 44.92945 | -122.96913 | 23829 ft | 254 kts | 3° |
| 2026-04-28 12:15 | 44.94714 | -122.96954 | 23829 ft | 254 kts | 3° |
| 2026-04-28 12:15 | 44.96487 | -122.96996 | 23829 ft | 254 kts | 3° |
| 2026-04-28 12:15 | 44.98255 | -122.97038 | 23829 ft | 254 kts | 3° |
| 2026-04-28 12:16 | 45.00003 | -122.97079 | 23829 ft | 254 kts | 3° |
| 2026-04-28 12:16 | 45.01772 | -122.97121 | 23830 ft | 254 kts | 3° |
| 2026-04-28 12:16 | 45.03545 | -122.97162 | 23830 ft | 254 kts | 3° |
| 2026-04-28 12:16 | 45.05315 | -122.97204 | 23830 ft | 255 kts | 3° |
| 2026-04-28 12:17 | 45.07088 | -122.97246 | 23831 ft | 255 kts | 3° |
| 2026-04-28 12:17 | 45.08856 | -122.97288 | 23831 ft | 255 kts | 3° |
| 2026-04-28 12:17 | 45.10626 | -122.97330 | 23831 ft | 255 kts | 2° |
| 2026-04-28 12:17 | 45.12400 | -122.97372 | 23831 ft | 255 kts | 2° |
| 2026-04-28 12:18 | 45.14174 | -122.97414 | 23832 ft | 255 kts | 2° |
| 2026-04-28 12:18 | 45.15947 | -122.97456 | 23832 ft | 255 kts | 2° |
| 2026-04-28 12:18 | 45.17725 | -122.97498 | 23832 ft | 255 kts | 2° |
| 2026-04-28 12:18 | 45.19497 | -122.97540 | 23832 ft | 255 kts | 2° |
| 2026-04-28 12:19 | 45.21269 | -122.97582 | 23832 ft | 255 kts | 2° |
| 2026-04-28 12:19 | 45.23045 | -122.97624 | 23833 ft | 255 kts | 2° |
| 2026-04-28 12:19 | 45.24820 | -122.97666 | 23833 ft | 255 kts | 2° |
| 2026-04-28 12:19 | 45.26575 | -122.97708 | 23832 ft | 255 kts | 2° |
| 2026-04-28 12:20 | 45.28352 | -122.97750 | 23831 ft | 255 kts | 2° |
| 2026-04-28 12:20 | 45.29930 | -122.97788 | 23831 ft | 255 kts | 2° |
| 2026-04-28 12:20 | 45.31708 | -122.97830 | 23830 ft | 255 kts | 2° |
| 2026-04-28 12:20 | 45.33479 | -122.97872 | 23829 ft | 255 kts | 2° |
| 2026-04-28 12:21 | 45.35254 | -122.97914 | 23828 ft | 255 kts | 2° |
| 2026-04-28 12:21 | 45.37024 | -122.97922 | 23827 ft | 254 kts | 4° |
| 2026-04-28 12:21 | 45.38798 | -122.97855 | 23826 ft | 254 kts | 5° |
| 2026-04-28 12:21 | 45.40575 | -122.97755 | 23824 ft | 254 kts | 5° |
| 2026-04-28 12:22 | 45.42319 | -122.97651 | 23821 ft | 254 kts | 5° |
| 2026-04-28 12:22 | 45.44086 | -122.97549 | 23818 ft | 255 kts | 5° |
| 2026-04-28 12:22 | 45.45856 | -122.97451 | 23816 ft | 255 kts | 5° |
| 2026-04-28 12:22 | 45.47629 | -122.97360 | 23814 ft | 255 kts | 5° |
| 2026-04-28 12:23 | 45.49244 | -122.97281 | 23812 ft | 255 kts | 5° |
| 2026-04-28 12:23 | 45.51019 | -122.97196 | 23811 ft | 255 kts | 5° |
| 2026-04-28 12:23 | 45.52789 | -122.97114 | 23810 ft | 255 kts | 5° |
| 2026-04-28 12:23 | 45.54567 | -122.97032 | 23809 ft | 255 kts | 5° |
| 2026-04-28 12:24 | 45.56342 | -122.96950 | 23810 ft | 255 kts | 5° |
| 2026-04-28 12:24 | 45.58116 | -122.96868 | 23809 ft | 255 kts | 5° |
| 2026-04-28 12:24 | 45.59889 | -122.96787 | 23809 ft | 255 kts | 4° |
| 2026-04-28 12:24 | 45.61661 | -122.96704 | 23809 ft | 255 kts | 4° |
| 2026-04-28 12:25 | 45.63434 | -122.96623 | 23809 ft | 255 kts | 4° |
| 2026-04-28 12:25 | 45.65212 | -122.96541 | 23810 ft | 255 kts | 4° |
| 2026-04-28 12:25 | 45.66984 | -122.96459 | 23810 ft | 255 kts | 4° |
| 2026-04-28 12:25 | 45.68731 | -122.96378 | 23810 ft | 255 kts | 4° |
| 2026-04-28 12:26 | 45.70504 | -122.96296 | 23809 ft | 255 kts | 4° |
| 2026-04-28 12:26 | 45.72279 | -122.96214 | 23809 ft | 255 kts | 4° |
| 2026-04-28 12:26 | 45.74051 | -122.96132 | 23809 ft | 255 kts | 4° |
| 2026-04-28 12:26 | 45.75830 | -122.96049 | 23809 ft | 255 kts | 4° |
| 2026-04-28 12:27 | 45.77605 | -122.95967 | 23810 ft | 255 kts | 4° |
| 2026-04-28 12:27 | 45.79379 | -122.95884 | 23810 ft | 255 kts | 4° |
| 2026-04-28 12:27 | 45.81159 | -122.95802 | 23810 ft | 255 kts | 4° |
| 2026-04-28 12:27 | 45.82937 | -122.95718 | 23809 ft | 255 kts | 4° |
| 2026-04-28 12:28 | 45.84714 | -122.95635 | 23810 ft | 255 kts | 4° |
| 2026-04-28 12:28 | 45.86494 | -122.95553 | 23810 ft | 256 kts | 4° |
| 2026-04-28 12:28 | 45.88274 | -122.95470 | 23810 ft | 256 kts | 4° |
| 2026-04-28 12:28 | 45.90050 | -122.95387 | 23810 ft | 256 kts | 4° |
| 2026-04-28 12:29 | 45.93586 | -122.95222 | 23809 ft | 256 kts | 4° |
| 2026-04-28 12:29 | 45.95359 | -122.95139 | 23809 ft | 256 kts | 4° |
| 2026-04-28 12:29 | 45.97139 | -122.95056 | 23809 ft | 256 kts | 4° |
| 2026-04-28 12:30 | 45.98918 | -122.94973 | 23809 ft | 256 kts | 4° |
| 2026-04-28 12:30 | 46.00695 | -122.94889 | 23809 ft | 256 kts | 3° |
| 2026-04-28 12:30 | 46.02475 | -122.94802 | 23808 ft | 256 kts | 3° |
| 2026-04-28 12:30 | 46.04256 | -122.94719 | 23809 ft | 256 kts | 2° |
| 2026-04-28 12:31 | 46.06040 | -122.94636 | 23809 ft | 257 kts | 2° |
| 2026-04-28 12:31 | 46.07824 | -122.94553 | 23809 ft | 257 kts | 2° |
| 2026-04-28 12:31 | 46.09614 | -122.94470 | 23809 ft | 257 kts | 2° |
| 2026-04-28 12:31 | 46.11402 | -122.94386 | 23809 ft | 257 kts | 2° |
| 2026-04-28 12:32 | 46.13189 | -122.94303 | 23809 ft | 257 kts | 2° |
| 2026-04-28 12:32 | 46.14989 | -122.94218 | 23809 ft | 257 kts | 2° |
| 2026-04-28 12:32 | 46.16755 | -122.94135 | 23809 ft | 258 kts | 2° |
| 2026-04-28 12:32 | 46.18548 | -122.94050 | 23809 ft | 258 kts | 2° |
| 2026-04-28 12:33 | 46.20343 | -122.93966 | 23809 ft | 258 kts | 2° |
| 2026-04-28 12:33 | 46.22138 | -122.93881 | 23809 ft | 258 kts | 2° |
| 2026-04-28 12:33 | 46.23932 | -122.93796 | 23809 ft | 258 kts | 2° |
| 2026-04-28 12:33 | 46.25729 | -122.93711 | 23809 ft | 258 kts | 2° |
| 2026-04-28 12:34 | 46.27526 | -122.93626 | 23809 ft | 258 kts | 2° |
| 2026-04-28 12:34 | 46.29321 | -122.93541 | 23809 ft | 258 kts | 2° |
| 2026-04-28 12:34 | 46.31115 | -122.93456 | 23809 ft | 258 kts | 2° |
| 2026-04-28 12:34 | 46.32913 | -122.93371 | 23809 ft | 258 kts | 2° |
| 2026-04-28 12:35 | 46.34712 | -122.93285 | 23810 ft | 258 kts | 2° |
| 2026-04-28 12:35 | 46.36508 | -122.93200 | 23810 ft | 258 kts | 2° |
| 2026-04-28 12:35 | 46.38301 | -122.93115 | 23800 ft | 259 kts | 2° |
| 2026-04-28 12:35 | 46.40099 | -122.93029 | 23569 ft | 266 kts | 2° |
| 2026-04-28 12:36 | 46.41970 | -122.92935 | 23203 ft | 268 kts | 2° |
| 2026-04-28 12:36 | 46.43835 | -122.92838 | 22810 ft | 268 kts | 2° |
| 2026-04-28 12:36 | 46.45719 | -122.92741 | 22412 ft | 273 kts | 2° |
| 2026-04-28 12:36 | 46.47625 | -122.92645 | 22014 ft | 275 kts | 2° |
| 2026-04-28 12:37 | 46.49551 | -122.92549 | 21613 ft | 277 kts | 2° |
| 2026-04-28 12:37 | 46.51479 | -122.92454 | 21214 ft | 277 kts | 2° |
| 2026-04-28 12:37 | 46.53411 | -122.92360 | 20813 ft | 278 kts | 2° |
| 2026-04-28 12:37 | 46.55315 | -122.92268 | 20419 ft | 278 kts | 2° |
| 2026-04-28 12:38 | 46.57272 | -122.92173 | 20014 ft | 277 kts | 2° |
| 2026-04-28 12:38 | 46.59169 | -122.92082 | 19620 ft | 277 kts | 2° |
| 2026-04-28 12:38 | 46.61094 | -122.91989 | 19219 ft | 276 kts | 2° |
| 2026-04-28 12:38 | 46.63011 | -122.91896 | 18819 ft | 275 kts | 2° |
| 2026-04-28 12:39 | 46.64926 | -122.91803 | 18418 ft | 274 kts | 2° |
| 2026-04-28 12:39 | 46.66832 | -122.91711 | 18017 ft | 273 kts | 2° |
| 2026-04-28 12:39 | 46.68728 | -122.91620 | 17618 ft | 272 kts | 2° |
| 2026-04-28 12:39 | 46.70620 | -122.91529 | 17217 ft | 272 kts | 2° |
| 2026-04-28 12:40 | 46.72507 | -122.91438 | 16817 ft | 271 kts | 2° |
| 2026-04-28 12:40 | 46.74395 | -122.91347 | 16416 ft | 271 kts | 2° |
| 2026-04-28 12:40 | 46.76277 | -122.91256 | 16015 ft | 270 kts | 2° |
| 2026-04-28 12:40 | 46.78153 | -122.91165 | 15615 ft | 269 kts | 2° |
| 2026-04-28 12:41 | 46.80025 | -122.91074 | 15215 ft | 269 kts | 2° |
| 2026-04-28 12:41 | 46.81870 | -122.90985 | 14819 ft | 268 kts | 2° |
| 2026-04-28 12:41 | 46.83734 | -122.90895 | 14418 ft | 268 kts | 2° |
| 2026-04-28 12:41 | 46.85596 | -122.90805 | 14018 ft | 267 kts | 2° |
| 2026-04-28 12:42 | 46.87451 | -122.90715 | 13618 ft | 267 kts | 1° |
| 2026-04-28 12:42 | 46.89309 | -122.90625 | 13215 ft | 266 kts | 1° |
| 2026-04-28 12:42 | 46.91156 | -122.90535 | 12817 ft | 266 kts | 1° |
| 2026-04-28 12:42 | 46.93000 | -122.90446 | 12418 ft | 265 kts | 1° |
| 2026-04-28 12:43 | 46.94838 | -122.90354 | 12136 ft | 260 kts | 2° |
| 2026-04-28 12:43 | 46.96595 | -122.89943 | 12028 ft | 250 kts | 16° |
| 2026-04-28 12:43 | 46.98123 | -122.88933 | 11998 ft | 240 kts | 34° |
| 2026-04-28 12:43 | 46.99332 | -122.87317 | 12004 ft | 232 kts | 44° |
| 2026-04-28 12:44 | 47.00509 | -122.85749 | 11998 ft | 226 kts | 41° |
| 2026-04-28 12:44 | 47.01697 | -122.84278 | 11996 ft | 221 kts | 39° |
| 2026-04-28 12:44 | 47.02875 | -122.82850 | 11995 ft | 218 kts | 39° |
| 2026-04-28 12:44 | 47.03647 | -122.81914 | 11993 ft | 216 kts | 39° |
| 2026-04-28 12:45 | 47.04799 | -122.80504 | 11992 ft | 214 kts | 40° |
| 2026-04-28 12:45 | 47.05936 | -122.79096 | 11989 ft | 213 kts | 40° |
| 2026-04-28 12:45 | 47.07058 | -122.77690 | 11987 ft | 212 kts | 40° |
| 2026-04-28 12:45 | 47.08170 | -122.76286 | 11985 ft | 211 kts | 40° |
| 2026-04-28 12:46 | 47.09280 | -122.74876 | 11983 ft | 210 kts | 41° |
| 2026-04-28 12:46 | 47.10382 | -122.73471 | 11983 ft | 210 kts | 41° |
| 2026-04-28 12:46 | 47.11480 | -122.72063 | 11983 ft | 209 kts | 41° |
| 2026-04-28 12:46 | 47.12572 | -122.70645 | 11982 ft | 209 kts | 41° |
| 2026-04-28 12:47 | 47.13662 | -122.69234 | 11982 ft | 209 kts | 41° |
| 2026-04-28 12:47 | 47.14736 | -122.67849 | 11982 ft | 209 kts | 41° |
| 2026-04-28 12:47 | 47.15836 | -122.66433 | 11982 ft | 209 kts | 41° |
| 2026-04-28 12:47 | 47.16933 | -122.65025 | 11983 ft | 209 kts | 41° |
| 2026-04-28 12:48 | 47.18022 | -122.63627 | 11984 ft | 209 kts | 41° |
| 2026-04-28 12:48 | 47.19124 | -122.62212 | 11892 ft | 213 kts | 41° |
| 2026-04-28 12:48 | 47.20266 | -122.60743 | 11627 ft | 224 kts | 41° |
| 2026-04-28 12:48 | 47.21479 | -122.59213 | 11353 ft | 232 kts | 37° |
| 2026-04-28 12:49 | 47.22919 | -122.58094 | 11077 ft | 237 kts | 17° |
| 2026-04-28 12:49 | 47.24556 | -122.57749 | 10813 ft | 239 kts | 4° |
| 2026-04-28 12:49 | 47.26228 | -122.57517 | 10538 ft | 242 kts | 5° |
| 2026-04-28 12:49 | 47.27905 | -122.57257 | 10264 ft | 243 kts | 6° |
| 2026-04-28 12:50 | 47.29592 | -122.56987 | 9989 ft | 243 kts | 6° |
| 2026-04-28 12:50 | 47.31267 | -122.56716 | 9714 ft | 241 kts | 6° |
| 2026-04-28 12:50 | 47.32926 | -122.56449 | 9439 ft | 239 kts | 6° |
| 2026-04-28 12:50 | 47.34586 | -122.56183 | 9161 ft | 238 kts | 6° |
| 2026-04-28 12:51 | 47.36225 | -122.55921 | 8886 ft | 236 kts | 6° |
| 2026-04-28 12:51 | 47.37857 | -122.55661 | 8611 ft | 235 kts | 6° |
| 2026-04-28 12:51 | 47.39464 | -122.55405 | 8339 ft | 235 kts | 6° |
| 2026-04-28 12:51 | 47.41103 | -122.55144 | 8060 ft | 234 kts | 6° |
| 2026-04-28 12:52 | 47.42720 | -122.54886 | 7785 ft | 233 kts | 6° |
| 2026-04-28 12:52 | 47.44310 | -122.54632 | 7513 ft | 233 kts | 6° |
| 2026-04-28 12:52 | 47.45924 | -122.54470 | 7237 ft | 232 kts | 360° |
| 2026-04-28 12:52 | 47.47528 | -122.54677 | 6962 ft | 231 kts | 350° |
| 2026-04-28 12:53 | 47.49108 | -122.55111 | 6688 ft | 230 kts | 349° |
| 2026-04-28 12:53 | 47.50674 | -122.55557 | 6413 ft | 230 kts | 349° |
| 2026-04-28 12:53 | 47.52243 | -122.56004 | 6138 ft | 229 kts | 349° |
| 2026-04-28 12:53 | 47.53813 | -122.56446 | 5862 ft | 228 kts | 349° |
| 2026-04-28 12:54 | 47.55376 | -122.56882 | 5586 ft | 228 kts | 349° |
| 2026-04-28 12:54 | 47.56929 | -122.57312 | 5312 ft | 228 kts | 349° |
| 2026-04-28 12:54 | 47.58481 | -122.57742 | 5037 ft | 227 kts | 349° |
| 2026-04-28 12:54 | 47.60042 | -122.58175 | 4760 ft | 226 kts | 349° |
| 2026-04-28 12:55 | 47.61588 | -122.58584 | 4483 ft | 226 kts | 352° |
| 2026-04-28 12:55 | 47.63159 | -122.58566 | 4211 ft | 226 kts | 8° |
| 2026-04-28 12:55 | 47.64555 | -122.57784 | 4081 ft | 193 kts | 29° |
| 2026-04-28 12:55 | 47.65570 | -122.56971 | 3917 ft | 136 kts | 26° |
| 2026-04-28 12:56 | 47.66390 | -122.56388 | 3614 ft | 131 kts | 23° |
| 2026-04-28 12:56 | 47.67211 | -122.55822 | 3338 ft | 128 kts | 24° |
| 2026-04-28 12:56 | 47.67887 | -122.54943 | 3111 ft | 132 kts | 52° |
| 2026-04-28 12:56 | 47.68153 | -122.53658 | 2957 ft | 134 kts | 86° |
| 2026-04-28 12:57 | 47.68052 | -122.52279 | 2586 ft | 132 kts | 98° |
| 2026-04-28 12:57 | 47.67904 | -122.50986 | 2151 ft | 123 kts | 99° |
| 2026-04-28 12:57 | 47.67758 | -122.49769 | 1736 ft | 116 kts | 99° |
| 2026-04-28 12:57 | 47.67628 | -122.48637 | 1581 ft | 111 kts | 98° |
| 2026-04-28 12:58 | 47.67511 | -122.47489 | 1601 ft | 115 kts | 97° |
| 2026-04-28 12:58 | 47.67399 | -122.46298 | 1611 ft | 118 kts | 96° |
| 2026-04-28 12:58 | 47.66998 | -122.45253 | 1588 ft | 120 kts | 142° |
| 2026-04-28 12:58 | 47.66292 | -122.44631 | 1620 ft | 119 kts | 152° |
| 2026-04-28 12:59 | 47.65556 | -122.44040 | 1609 ft | 121 kts | 152° |
| 2026-04-28 12:59 | 47.64838 | -122.43375 | 1602 ft | 122 kts | 143° |
| 2026-04-28 12:59 | 47.64173 | -122.42587 | 1601 ft | 122 kts | 141° |
| 2026-04-28 12:59 | 47.63554 | -122.41745 | 1599 ft | 122 kts | 132° |
| 2026-04-28 13:00 | 47.63014 | -122.40772 | 1601 ft | 122 kts | 128° |
| 2026-04-28 13:00 | 47.62487 | -122.39785 | 1599 ft | 122 kts | 128° |
| 2026-04-28 13:00 | 47.61962 | -122.38803 | 1598 ft | 121 kts | 128° |
| 2026-04-28 13:00 | 47.61414 | -122.37855 | 1599 ft | 121 kts | 132° |
| 2026-04-28 13:01 | 47.60802 | -122.37011 | 1618 ft | 119 kts | 140° |
| 2026-04-28 13:01 | 47.60131 | -122.36263 | 1566 ft | 124 kts | 145° |
| 2026-04-28 13:01 | 47.59420 | -122.35596 | 1374 ft | 116 kts | 149° |
| 2026-04-28 13:01 | 47.58750 | -122.35049 | 1086 ft | 105 kts | 152° |
| 2026-04-28 13:02 | 47.58137 | -122.34571 | 839 ft | 95 kts | 152° |
| 2026-04-28 13:02 | 47.57542 | -122.34100 | 691 ft | 104 kts | 151° |
| 2026-04-28 13:02 | 47.56897 | -122.33577 | 689 ft | 104 kts | 150° |
| 2026-04-28 13:02 | 47.56275 | -122.33010 | 558 ft | 106 kts | 148° |
| 2026-04-28 13:03 | 47.55647 | -122.32482 | 408 ft | 103 kts | 151° |
| 2026-04-28 13:03 | 47.54983 | -122.31954 | 288 ft | 108 kts | 153° |
| 2026-04-28 13:03 | 47.54362 | -122.31439 | 134 ft | 98 kts | 147° |
| 2026-04-28 13:03 | 47.53812 | -122.30933 | 26 ft | 90 kts | 147° |
| 2026-04-28 13:04 | 47.53358 | -122.30544 | 22 ft | 55 kts | 152° |
| 2026-04-28 13:04 | 47.53089 | -122.30328 | 22 ft | 27 kts | 149° |
| 2026-04-28 13:04 | 47.53041 | -122.30213 | 22 ft | 14 kts | 50° |
| 2026-04-28 13:04 | 47.53099 | -122.30090 | 22 ft | 11 kts | 29° |
| 2026-04-28 13:05 | 47.53178 | -122.30136 | 22 ft | 15 kts | 332° |
| 2026-04-28 13:05 | 47.53283 | -122.30221 | 22 ft | 19 kts | 333° |
| 2026-04-28 13:05 | 47.53404 | -122.30316 | 22 ft | 17 kts | 331° |
| 2026-04-28 13:05 | 47.53497 | -122.30389 | 22 ft | 17 kts | 328° |
| 2026-04-28 13:06 | 47.53598 | -122.30498 | 22 ft | 17 kts | 323° |
| 2026-04-28 13:06 | 47.53693 | -122.30587 | 22 ft | 16 kts | 332° |
| 2026-04-28 13:06 | 47.53784 | -122.30658 | 22 ft | 16 kts | 332° |
| 2026-04-28 13:06 | 47.53886 | -122.30735 | 22 ft | 7 kts | 329° |
| 2026-04-28 13:07 | 47.53944 | -122.30790 | 22 ft | 11 kts | 331° |
| 2026-04-28 13:07 | 47.53998 | -122.30833 | 22 ft | 6 kts | 333° |
| 2026-04-28 13:07 | 47.54021 | -122.30850 | 22 ft | 4 kts | 332° |
| 2026-04-28 13:07 | 47.54059 | -122.30883 | 22 ft | 9 kts | 327° |
| 2026-04-28 13:08 | 47.54106 | -122.30876 | 22 ft | 7 kts | 44° |